| Date | Time | Temp. (oF) | Dew Point (oF) | Rel. Hum. (%) | Press. (in.) | Wind Dir. | Wind Speed (mph) | Hourly Rainfall (in.) |
|
|---|---|---|---|---|---|---|---|---|---|
| 1 | 10/05 | 00:00 | 54 | 52 | 94 | 30.25 | ESE | 0 | 0.00 |
| 2 | 10/04 | 23:00 | 55 | 52 | 91 | 30.24 | ESE | 0 | 0.00 |
| 3 | 10/04 | 22:00 | 56 | 53 | 91 | 30.23 | ESE | 0 | 0.00 |
| 4 | 10/04 | 21:00 | 56 | 52 | 87 | 30.23 | ENE | 0 | 0.00 |
| 5 | 10/04 | 20:00 | 58 | 52 | 81 | 30.22 | NE | 0 | 0.00 |
| 6 | 10/04 | 19:00 | 62 | 54 | 76 | 30.21 | ENE | 4 | 0.00 |
| 7 | 10/04 | 18:00 | 65 | 55 | 71 | 30.20 | ENE | 7 | 0.00 |
| 8 | 10/04 | 17:00 | 67 | 55 | 66 | 30.19 | E | 4 | 0.00 |
| 9 | 10/04 | 16:00 | 66 | 57 | 75 | 30.19 | E | 4 | 0.00 |
| 10 | 10/04 | 15:00 | 66 | 57 | 75 | 30.18 | ENE | 8 | 0.00 |
| 11 | 10/04 | 14:00 | 67 | 58 | 75 | 30.18 | ENE | 8 | 0.00 |
| 12 | 10/04 | 13:00 | 67 | 59 | 77 | 30.19 | NE | 1 | 0.00 |
| 13 | 10/04 | 12:00 | 65 | 59 | 83 | 30.19 | ENE | 5 | 0.00 |
| 14 | 10/04 | 11:00 | 66 | 60 | 82 | 30.19 | NE | 5 | 0.00 |
| 15 | 10/04 | 10:00 | 63 | 61 | 95 | 30.18 | NE | 4 | 0.00 |
| 16 | 10/04 | 09:00 | 54 | 54 | 100 | 30.18 | ENE | 0 | 0.00 |
| 17 | 10/04 | 08:00 | 48 | 48 | 100 | 30.17 | SE | 0 | 0.00 |
| 18 | 10/04 | 07:00 | 48 | 48 | 100 | 30.14 | SSE | 0 | 0.00 |
| 19 | 10/04 | 06:00 | 49 | 49 | 100 | 30.12 | SSE | 0 | 0.00 |
| 20 | 10/04 | 05:00 | 50 | 49 | 99 | 30.10 | SE | 0 | 0.00 |
| 21 | 10/04 | 04:00 | 50 | 49 | 98 | 30.09 | SE | 0 | 0.00 |
| 22 | 10/04 | 03:00 | 51 | 50 | 97 | 30.07 | SE | 0 | 0.00 |
| 23 | 10/04 | 02:00 | 52 | 50 | 96 | 30.07 | SSE | 0 | 0.00 |
| 24 | 10/04 | 01:00 | 53 | 51 | 94 | 30.05 | SE | 0 | 0.00 |